sensor_id;sensor_type;location;lat;lon;timestamp;temperature;humidity
13426;DHT22;6785;57.918;12.530;2023-04-24T00:01:05;4.40;99.90
13426;DHT22;6785;57.918;12.530;2023-04-24T00:03:33;4.40;99.90
13426;DHT22;6785;57.918;12.530;2023-04-24T00:05:59;4.30;99.90
13426;DHT22;6785;57.918;12.530;2023-04-24T00:08:27;4.20;99.90
13426;DHT22;6785;57.918;12.530;2023-04-24T00:10:54;4.30;99.90
13426;DHT22;6785;57.918;12.530;2023-04-24T00:13:21;4.20;99.90
13426;DHT22;6785;57.918;12.530;2023-04-24T00:15:49;4.20;99.90
13426;DHT22;6785;57.918;12.530;2023-04-24T00:18:16;4.20;99.90
13426;DHT22;6785;57.918;12.530;2023-04-24T00:20:42;4.10;99.90
13426;DHT22;6785;57.918;12.530;2023-04-24T00:23:10;4.10;99.90
13426;DHT22;6785;57.918;12.530;2023-04-24T00:25:36;4.00;99.90
13426;DHT22;6785;57.918;12.530;2023-04-24T00:28:03;4.00;99.90
13426;DHT22;6785;57.918;12.530;2023-04-24T00:30:30;4.00;99.90
13426;DHT22;6785;57.918;12.530;2023-04-24T00:32:58;4.00;99.90
13426;DHT22;6785;57.918;12.530;2023-04-24T00:35:25;4.00;99.90
13426;DHT22;6785;57.918;12.530;2023-04-24T00:37:52;4.00;99.90
13426;DHT22;6785;57.918;12.530;2023-04-24T00:40:18;4.00;99.90
13426;DHT22;6785;57.918;12.530;2023-04-24T00:42:45;4.10;99.90
13426;DHT22;6785;57.918;12.530;2023-04-24T00:45:12;4.10;99.90
13426;DHT22;6785;57.918;12.530;2023-04-24T00:47:39;4.10;99.90
13426;DHT22;6785;57.918;12.530;2023-04-24T00:50:09;4.20;99.90
13426;DHT22;6785;57.918;12.530;2023-04-24T00:52:36;4.10;99.90
13426;DHT22;6785;57.918;12.530;2023-04-24T00:55:06;4.10;99.90
13426;DHT22;6785;57.918;12.530;2023-04-24T00:57:33;4.10;99.90
13426;DHT22;6785;57.918;12.530;2023-04-24T01:00:01;4.00;99.90
13426;DHT22;6785;57.918;12.530;2023-04-24T01:02:29;3.90;99.90
13426;DHT22;6785;57.918;12.530;2023-04-24T01:04:56;3.90;99.90
13426;DHT22;6785;57.918;12.530;2023-04-24T01:07:24;3.90;99.90
13426;DHT22;6785;57.918;12.530;2023-04-24T01:09:52;3.90;99.90
13426;DHT22;6785;57.918;12.530;2023-04-24T01:12:19;3.80;99.90
13426;DHT22;6785;57.918;12.530;2023-04-24T01:14:46;3.80;99.90
13426;DHT22;6785;57.918;12.530;2023-04-24T01:17:13;3.80;99.90
13426;DHT22;6785;57.918;12.530;2023-04-24T01:19:40;3.80;99.90
13426;DHT22;6785;57.918;12.530;2023-04-24T01:22:13;3.80;99.90
13426;DHT22;6785;57.918;12.530;2023-04-24T01:24:40;3.80;99.90
13426;DHT22;6785;57.918;12.530;2023-04-24T01:27:08;3.80;99.90
13426;DHT22;6785;57.918;12.530;2023-04-24T01:29:35;3.90;99.90
13426;DHT22;6785;57.918;12.530;2023-04-24T01:32:03;3.90;99.90
13426;DHT22;6785;57.918;12.530;2023-04-24T01:34:30;3.90;99.90
13426;DHT22;6785;57.918;12.530;2023-04-24T01:36:57;4.00;99.90
13426;DHT22;6785;57.918;12.530;2023-04-24T01:39:26;4.10;99.90
13426;DHT22;6785;57.918;12.530;2023-04-24T01:41:54;4.20;99.90
13426;DHT22;6785;57.918;12.530;2023-04-24T01:44:20;4.20;99.90
13426;DHT22;6785;57.918;12.530;2023-04-24T01:46:47;4.30;99.90
13426;DHT22;6785;57.918;12.530;2023-04-24T01:49:14;4.40;99.90
13426;DHT22;6785;57.918;12.530;2023-04-24T01:51:41;4.40;99.90
13426;DHT22;6785;57.918;12.530;2023-04-24T01:54:08;4.50;99.90
13426;DHT22;6785;57.918;12.530;2023-04-24T01:56:36;4.60;99.90
13426;DHT22;6785;57.918;12.530;2023-04-24T01:59:07;4.60;99.90
13426;DHT22;6785;57.918;12.530;2023-04-24T02:01:36;4.60;99.90
13426;DHT22;6785;57.918;12.530;2023-04-24T02:04:03;4.60;99.90
13426;DHT22;6785;57.918;12.530;2023-04-24T02:06:30;4.60;99.90
13426;DHT22;6785;57.918;12.530;2023-04-24T02:08:58;4.70;99.90
13426;DHT22;6785;57.918;12.530;2023-04-24T02:11:25;4.70;99.90
13426;DHT22;6785;57.918;12.530;2023-04-24T02:13:53;4.60;99.90
13426;DHT22;6785;57.918;12.530;2023-04-24T02:16:20;4.60;99.90
13426;DHT22;6785;57.918;12.530;2023-04-24T02:18:47;4.50;99.90
13426;DHT22;6785;57.918;12.530;2023-04-24T02:21:14;4.50;99.90
13426;DHT22;6785;57.918;12.530;2023-04-24T02:23:40;4.40;99.90
13426;DHT22;6785;57.918;12.530;2023-04-24T02:26:07;4.30;99.90
13426;DHT22;6785;57.918;12.530;2023-04-24T02:28:34;4.30;99.90
13426;DHT22;6785;57.918;12.530;2023-04-24T02:31:02;4.20;99.90
13426;DHT22;6785;57.918;12.530;2023-04-24T02:33:29;4.20;99.90
13426;DHT22;6785;57.918;12.530;2023-04-24T02:35:56;4.10;99.90
13426;DHT22;6785;57.918;12.530;2023-04-24T02:38:22;4.10;99.90
13426;DHT22;6785;57.918;12.530;2023-04-24T02:40:49;4.00;99.90
13426;DHT22;6785;57.918;12.530;2023-04-24T02:43:16;4.00;99.90
13426;DHT22;6785;57.918;12.530;2023-04-24T02:45:42;4.00;99.90
13426;DHT22;6785;57.918;12.530;2023-04-24T02:48:10;4.00;99.90
13426;DHT22;6785;57.918;12.530;2023-04-24T02:50:37;4.00;99.90
13426;DHT22;6785;57.918;12.530;2023-04-24T02:53:04;3.90;99.90
13426;DHT22;6785;57.918;12.530;2023-04-24T02:55:31;3.90;99.90
13426;DHT22;6785;57.918;12.530;2023-04-24T02:57:57;3.90;99.90
13426;DHT22;6785;57.918;12.530;2023-04-24T03:00:24;3.90;99.90
13426;DHT22;6785;57.918;12.530;2023-04-24T03:02:51;4.00;99.90
13426;DHT22;6785;57.918;12.530;2023-04-24T03:05:20;3.90;99.90
13426;DHT22;6785;57.918;12.530;2023-04-24T03:07:46;4.10;99.90
13426;DHT22;6785;57.918;12.530;2023-04-24T03:10:13;4.20;99.90
13426;DHT22;6785;57.918;12.530;2023-04-24T03:12:40;4.20;99.90
13426;DHT22;6785;57.918;12.530;2023-04-24T03:15:08;4.30;99.90
13426;DHT22;6785;57.918;12.530;2023-04-24T03:17:35;4.30;99.90
13426;DHT22;6785;57.918;12.530;2023-04-24T03:20:02;4.30;99.90
13426;DHT22;6785;57.918;12.530;2023-04-24T03:22:32;4.30;99.90
13426;DHT22;6785;57.918;12.530;2023-04-24T03:24:59;4.20;99.90
13426;DHT22;6785;57.918;12.530;2023-04-24T03:27:25;4.20;99.90
13426;DHT22;6785;57.918;12.530;2023-04-24T03:29:52;4.20;99.90
13426;DHT22;6785;57.918;12.530;2023-04-24T03:32:21;4.20;99.90
13426;DHT22;6785;57.918;12.530;2023-04-24T03:34:48;4.20;99.90
13426;DHT22;6785;57.918;12.530;2023-04-24T03:37:15;4.20;99.90
13426;DHT22;6785;57.918;12.530;2023-04-24T03:39:43;4.20;99.90
13426;DHT22;6785;57.918;12.530;2023-04-24T03:42:10;4.10;99.90
13426;DHT22;6785;57.918;12.530;2023-04-24T03:44:37;4.10;99.90
13426;DHT22;6785;57.918;12.530;2023-04-24T03:47:03;4.20;99.90
13426;DHT22;6785;57.918;12.530;2023-04-24T03:49:30;4.10;99.90
13426;DHT22;6785;57.918;12.530;2023-04-24T03:51:57;4.20;99.90
13426;DHT22;6785;57.918;12.530;2023-04-24T03:54:23;4.10;99.90
13426;DHT22;6785;57.918;12.530;2023-04-24T03:56:51;4.10;99.90
13426;DHT22;6785;57.918;12.530;2023-04-24T03:59:18;4.20;99.90
13426;DHT22;6785;57.918;12.530;2023-04-24T04:01:45;4.20;99.90
13426;DHT22;6785;57.918;12.530;2023-04-24T04:04:12;4.20;99.90
13426;DHT22;6785;57.918;12.530;2023-04-24T04:06:38;4.20;99.90
13426;DHT22;6785;57.918;12.530;2023-04-24T04:09:05;4.20;99.90
13426;DHT22;6785;57.918;12.530;2023-04-24T04:11:32;4.20;99.90
13426;DHT22;6785;57.918;12.530;2023-04-24T04:14:00;4.20;99.90
13426;DHT22;6785;57.918;12.530;2023-04-24T04:16:27;4.20;99.90
13426;DHT22;6785;57.918;12.530;2023-04-24T04:18:54;4.30;99.90
13426;DHT22;6785;57.918;12.530;2023-04-24T04:21:21;4.40;99.90
13426;DHT22;6785;57.918;12.530;2023-04-24T04:23:48;4.50;99.90
13426;DHT22;6785;57.918;12.530;2023-04-24T04:26:14;4.70;99.90
13426;DHT22;6785;57.918;12.530;2023-04-24T04:28:41;4.90;99.90
13426;DHT22;6785;57.918;12.530;2023-04-24T04:31:11;4.90;99.90
13426;DHT22;6785;57.918;12.530;2023-04-24T04:33:38;5.00;99.90
13426;DHT22;6785;57.918;12.530;2023-04-24T04:36:05;5.10;99.90
13426;DHT22;6785;57.918;12.530;2023-04-24T04:38:32;5.20;99.90
13426;DHT22;6785;57.918;12.530;2023-04-24T04:40:59;5.30;99.90
13426;DHT22;6785;57.918;12.530;2023-04-24T04:43:25;5.40;99.90
13426;DHT22;6785;57.918;12.530;2023-04-24T04:45:52;5.50;99.90
13426;DHT22;6785;57.918;12.530;2023-04-24T04:48:21;5.70;99.90
13426;DHT22;6785;57.918;12.530;2023-04-24T04:50:48;5.80;99.90
13426;DHT22;6785;57.918;12.530;2023-04-24T04:53:15;5.90;99.90
13426;DHT22;6785;57.918;12.530;2023-04-24T04:55:41;5.90;99.90
13426;DHT22;6785;57.918;12.530;2023-04-24T04:58:08;6.00;99.90
13426;DHT22;6785;57.918;12.530;2023-04-24T05:00:35;6.00;99.90
13426;DHT22;6785;57.918;12.530;2023-04-24T05:03:03;6.10;99.90
13426;DHT22;6785;57.918;12.530;2023-04-24T05:05:31;6.10;99.90
13426;DHT22;6785;57.918;12.530;2023-04-24T05:07:57;6.20;99.90
13426;DHT22;6785;57.918;12.530;2023-04-24T05:10:24;6.20;99.90
13426;DHT22;6785;57.918;12.530;2023-04-24T05:12:51;6.10;99.90
13426;DHT22;6785;57.918;12.530;2023-04-24T05:15:18;6.10;99.90
13426;DHT22;6785;57.918;12.530;2023-04-24T05:17:44;6.10;99.90
13426;DHT22;6785;57.918;12.530;2023-04-24T05:20:11;6.20;99.90
13426;DHT22;6785;57.918;12.530;2023-04-24T05:22:39;6.30;99.90
13426;DHT22;6785;57.918;12.530;2023-04-24T05:25:06;6.40;99.90
13426;DHT22;6785;57.918;12.530;2023-04-24T05:27:33;6.50;99.90
13426;DHT22;6785;57.918;12.530;2023-04-24T05:30:00;6.50;99.90
13426;DHT22;6785;57.918;12.530;2023-04-24T05:32:27;6.60;99.90
13426;DHT22;6785;57.918;12.530;2023-04-24T05:34:54;6.70;99.90
13426;DHT22;6785;57.918;12.530;2023-04-24T05:37:20;6.70;99.90
13426;DHT22;6785;57.918;12.530;2023-04-24T05:39:48;6.70;99.90
13426;DHT22;6785;57.918;12.530;2023-04-24T05:42:15;6.70;99.90
13426;DHT22;6785;57.918;12.530;2023-04-24T05:44:42;6.70;99.90
13426;DHT22;6785;57.918;12.530;2023-04-24T05:47:09;6.70;99.90
13426;DHT22;6785;57.918;12.530;2023-04-24T05:49:35;6.70;99.90
13426;DHT22;6785;57.918;12.530;2023-04-24T05:52:02;6.70;99.90
13426;DHT22;6785;57.918;12.530;2023-04-24T05:54:30;6.80;99.90
13426;DHT22;6785;57.918;12.530;2023-04-24T05:56:59;7.10;99.90
13426;DHT22;6785;57.918;12.530;2023-04-24T05:59:26;7.30;99.90
13426;DHT22;6785;57.918;12.530;2023-04-24T06:01:53;7.50;99.90
13426;DHT22;6785;57.918;12.530;2023-04-24T06:04:20;7.60;99.90
13426;DHT22;6785;57.918;12.530;2023-04-24T06:06:47;7.80;99.90
13426;DHT22;6785;57.918;12.530;2023-04-24T06:09:16;7.90;99.90
13426;DHT22;6785;57.918;12.530;2023-04-24T06:11:43;7.90;99.90
13426;DHT22;6785;57.918;12.530;2023-04-24T06:14:11;7.90;99.90
13426;DHT22;6785;57.918;12.530;2023-04-24T06:16:38;7.90;99.90
13426;DHT22;6785;57.918;12.530;2023-04-24T06:19:05;7.90;99.90
13426;DHT22;6785;57.918;12.530;2023-04-24T06:21:32;8.00;99.90
13426;DHT22;6785;57.918;12.530;2023-04-24T06:23:59;8.10;99.90
13426;DHT22;6785;57.918;12.530;2023-04-24T06:26:25;8.10;99.90
13426;DHT22;6785;57.918;12.530;2023-04-24T06:28:52;8.10;99.90
13426;DHT22;6785;57.918;12.530;2023-04-24T06:31:21;8.20;99.90
13426;DHT22;6785;57.918;12.530;2023-04-24T06:33:48;8.20;99.90
13426;DHT22;6785;57.918;12.530;2023-04-24T06:36:15;8.30;99.90
13426;DHT22;6785;57.918;12.530;2023-04-24T06:38:42;8.30;99.90
13426;DHT22;6785;57.918;12.530;2023-04-24T06:41:10;8.40;99.90
13426;DHT22;6785;57.918;12.530;2023-04-24T06:43:36;8.50;99.90
13426;DHT22;6785;57.918;12.530;2023-04-24T06:46:03;8.60;99.90
13426;DHT22;6785;57.918;12.530;2023-04-24T06:48:31;8.70;99.90
13426;DHT22;6785;57.918;12.530;2023-04-24T06:50:58;8.80;99.90
13426;DHT22;6785;57.918;12.530;2023-04-24T06:53:25;8.80;99.90
13426;DHT22;6785;57.918;12.530;2023-04-24T06:55:52;8.90;99.90
13426;DHT22;6785;57.918;12.530;2023-04-24T06:58:20;9.00;99.90
13426;DHT22;6785;57.918;12.530;2023-04-24T07:00:47;9.20;99.90
13426;DHT22;6785;57.918;12.530;2023-04-24T07:03:13;9.30;99.90
13426;DHT22;6785;57.918;12.530;2023-04-24T07:05:42;9.40;99.90
13426;DHT22;6785;57.918;12.530;2023-04-24T07:08:08;9.50;99.90
13426;DHT22;6785;57.918;12.530;2023-04-24T07:10:36;9.60;99.90
13426;DHT22;6785;57.918;12.530;2023-04-24T07:13:03;9.60;99.90
13426;DHT22;6785;57.918;12.530;2023-04-24T07:15:30;9.60;99.90
13426;DHT22;6785;57.918;12.530;2023-04-24T07:17:57;9.70;99.90
13426;DHT22;6785;57.918;12.530;2023-04-24T07:20:24;9.60;99.90
13426;DHT22;6785;57.918;12.530;2023-04-24T07:22:52;9.70;99.90
13426;DHT22;6785;57.918;12.530;2023-04-24T07:25:20;9.80;99.90
13426;DHT22;6785;57.918;12.530;2023-04-24T07:27:47;9.70;99.90
13426;DHT22;6785;57.918;12.530;2023-04-24T07:30:14;9.80;99.90
13426;DHT22;6785;57.918;12.530;2023-04-24T07:32:41;9.80;99.90
13426;DHT22;6785;57.918;12.530;2023-04-24T07:35:08;9.80;99.90
13426;DHT22;6785;57.918;12.530;2023-04-24T07:37:35;9.80;99.90
13426;DHT22;6785;57.918;12.530;2023-04-24T07:40:04;9.90;99.90
13426;DHT22;6785;57.918;12.530;2023-04-24T07:42:31;9.90;99.90
13426;DHT22;6785;57.918;12.530;2023-04-24T07:44:59;9.90;99.90
13426;DHT22;6785;57.918;12.530;2023-04-24T07:47:26;9.80;99.90
13426;DHT22;6785;57.918;12.530;2023-04-24T07:49:53;9.80;99.90
13426;DHT22;6785;57.918;12.530;2023-04-24T07:52:20;9.90;99.90
13426;DHT22;6785;57.918;12.530;2023-04-24T07:54:47;9.90;99.90
13426;DHT22;6785;57.918;12.530;2023-04-24T07:57:16;9.90;99.90
13426;DHT22;6785;57.918;12.530;2023-04-24T07:59:43;9.90;99.90
13426;DHT22;6785;57.918;12.530;2023-04-24T08:02:09;10.00;99.90
13426;DHT22;6785;57.918;12.530;2023-04-24T08:04:37;10.00;99.90
13426;DHT22;6785;57.918;12.530;2023-04-24T08:07:03;9.90;99.90
13426;DHT22;6785;57.918;12.530;2023-04-24T08:09:30;9.80;99.90
13426;DHT22;6785;57.918;12.530;2023-04-24T08:11:57;9.70;99.90
13426;DHT22;6785;57.918;12.530;2023-04-24T08:14:25;9.50;99.90
13426;DHT22;6785;57.918;12.530;2023-04-24T08:16:53;9.50;99.90
13426;DHT22;6785;57.918;12.530;2023-04-24T08:19:20;9.40;99.90
13426;DHT22;6785;57.918;12.530;2023-04-24T08:21:46;9.30;99.90
13426;DHT22;6785;57.918;12.530;2023-04-24T08:24:13;9.30;99.90
13426;DHT22;6785;57.918;12.530;2023-04-24T08:26:40;9.30;99.90
13426;DHT22;6785;57.918;12.530;2023-04-24T08:29:06;9.30;99.90
13426;DHT22;6785;57.918;12.530;2023-04-24T08:31:34;9.20;99.90
13426;DHT22;6785;57.918;12.530;2023-04-24T08:34:01;9.20;99.90
13426;DHT22;6785;57.918;12.530;2023-04-24T08:36:28;9.20;99.90
13426;DHT22;6785;57.918;12.530;2023-04-24T08:38:56;9.20;99.90
13426;DHT22;6785;57.918;12.530;2023-04-24T08:41:22;9.20;99.90
13426;DHT22;6785;57.918;12.530;2023-04-24T08:43:51;9.10;99.90
13426;DHT22;6785;57.918;12.530;2023-04-24T08:46:19;9.10;99.90
13426;DHT22;6785;57.918;12.530;2023-04-24T08:48:48;9.10;99.90
13426;DHT22;6785;57.918;12.530;2023-04-24T08:51:15;9.00;99.90
13426;DHT22;6785;57.918;12.530;2023-04-24T08:53:43;8.80;99.90
13426;DHT22;6785;57.918;12.530;2023-04-24T08:56:11;8.80;99.90
13426;DHT22;6785;57.918;12.530;2023-04-24T08:58:39;8.80;99.90
13426;DHT22;6785;57.918;12.530;2023-04-24T09:01:06;8.80;99.90
13426;DHT22;6785;57.918;12.530;2023-04-24T09:03:33;8.90;99.90
13426;DHT22;6785;57.918;12.530;2023-04-24T09:06:02;8.90;99.90
13426;DHT22;6785;57.918;12.530;2023-04-24T09:08:30;8.90;99.90
13426;DHT22;6785;57.918;12.530;2023-04-24T09:10:58;8.80;99.90
13426;DHT22;6785;57.918;12.530;2023-04-24T09:13:28;8.90;99.90
13426;DHT22;6785;57.918;12.530;2023-04-24T09:15:55;8.80;99.90
13426;DHT22;6785;57.918;12.530;2023-04-24T09:18:22;8.80;99.90
13426;DHT22;6785;57.918;12.530;2023-04-24T09:21:00;8.80;99.90
13426;DHT22;6785;57.918;12.530;2023-04-24T09:23:30;8.90;99.90
13426;DHT22;6785;57.918;12.530;2023-04-24T09:25:57;9.00;99.90
13426;DHT22;6785;57.918;12.530;2023-04-24T09:28:26;9.00;99.90
13426;DHT22;6785;57.918;12.530;2023-04-24T09:31:04;9.10;99.90
13426;DHT22;6785;57.918;12.530;2023-04-24T09:33:30;9.10;99.90
13426;DHT22;6785;57.918;12.530;2023-04-24T09:35:57;9.20;99.90
13426;DHT22;6785;57.918;12.530;2023-04-24T09:38:32;9.30;99.90
13426;DHT22;6785;57.918;12.530;2023-04-24T09:41:00;9.40;99.90
13426;DHT22;6785;57.918;12.530;2023-04-24T09:43:28;9.50;99.90
13426;DHT22;6785;57.918;12.530;2023-04-24T09:45:56;9.50;99.90
13426;DHT22;6785;57.918;12.530;2023-04-24T09:48:31;9.60;99.90
13426;DHT22;6785;57.918;12.530;2023-04-24T09:50:58;9.70;99.90
13426;DHT22;6785;57.918;12.530;2023-04-24T09:53:26;9.90;99.90
13426;DHT22;6785;57.918;12.530;2023-04-24T09:55:55;9.90;99.90
13426;DHT22;6785;57.918;12.530;2023-04-24T09:58:25;9.90;99.90
13426;DHT22;6785;57.918;12.530;2023-04-24T10:00:54;9.80;99.90
13426;DHT22;6785;57.918;12.530;2023-04-24T10:03:24;9.80;99.90
13426;DHT22;6785;57.918;12.530;2023-04-24T10:05:51;9.80;99.90
13426;DHT22;6785;57.918;12.530;2023-04-24T10:08:19;9.90;99.90
13426;DHT22;6785;57.918;12.530;2023-04-24T10:10:47;9.90;99.90
13426;DHT22;6785;57.918;12.530;2023-04-24T10:13:15;9.80;99.90
13426;DHT22;6785;57.918;12.530;2023-04-24T10:15:42;9.80;99.90
13426;DHT22;6785;57.918;12.530;2023-04-24T10:18:09;9.80;99.90
13426;DHT22;6785;57.918;12.530;2023-04-24T10:20:39;9.80;99.90
13426;DHT22;6785;57.918;12.530;2023-04-24T10:23:06;9.90;99.90
13426;DHT22;6785;57.918;12.530;2023-04-24T10:25:34;10.10;99.90
13426;DHT22;6785;57.918;12.530;2023-04-24T10:28:02;10.30;99.90
13426;DHT22;6785;57.918;12.530;2023-04-24T10:30:31;10.60;99.90
13426;DHT22;6785;57.918;12.530;2023-04-24T10:33:00;10.90;99.90
13426;DHT22;6785;57.918;12.530;2023-04-24T10:35:30;11.00;99.90
13426;DHT22;6785;57.918;12.530;2023-04-24T10:37:59;11.30;99.90
13426;DHT22;6785;57.918;12.530;2023-04-24T10:40:31;11.40;99.90
13426;DHT22;6785;57.918;12.530;2023-04-24T10:42:57;11.50;99.90
13426;DHT22;6785;57.918;12.530;2023-04-24T10:45:25;11.70;99.90
13426;DHT22;6785;57.918;12.530;2023-04-24T10:47:57;11.80;99.90
13426;DHT22;6785;57.918;12.530;2023-04-24T10:50:26;11.70;99.90
13426;DHT22;6785;57.918;12.530;2023-04-24T10:53:05;11.40;99.90
13426;DHT22;6785;57.918;12.530;2023-04-24T10:55:44;11.30;99.90
13426;DHT22;6785;57.918;12.530;2023-04-24T10:58:11;11.10;99.90
13426;DHT22;6785;57.918;12.530;2023-04-24T11:00:39;11.00;99.90
13426;DHT22;6785;57.918;12.530;2023-04-24T11:03:09;10.90;99.90
13426;DHT22;6785;57.918;12.530;2023-04-24T11:05:55;10.90;99.90
13426;DHT22;6785;57.918;12.530;2023-04-24T11:08:24;10.90;99.90
13426;DHT22;6785;57.918;12.530;2023-04-24T11:10:56;11.00;99.90
13426;DHT22;6785;57.918;12.530;2023-04-24T11:13:24;11.10;99.90
13426;DHT22;6785;57.918;12.530;2023-04-24T11:16:13;11.20;99.90
13426;DHT22;6785;57.918;12.530;2023-04-24T11:18:43;11.40;99.90
13426;DHT22;6785;57.918;12.530;2023-04-24T11:21:17;11.50;99.90
13426;DHT22;6785;57.918;12.530;2023-04-24T11:23:44;11.50;99.90
13426;DHT22;6785;57.918;12.530;2023-04-24T11:26:13;11.70;99.90
13426;DHT22;6785;57.918;12.530;2023-04-24T11:28:47;11.80;99.90
13426;DHT22;6785;57.918;12.530;2023-04-24T11:31:36;12.20;99.90
13426;DHT22;6785;57.918;12.530;2023-04-24T11:34:12;12.60;99.90
13426;DHT22;6785;57.918;12.530;2023-04-24T11:36:40;12.90;99.90
13426;DHT22;6785;57.918;12.530;2023-04-24T11:39:06;12.90;99.90
13426;DHT22;6785;57.918;12.530;2023-04-24T11:41:34;13.00;99.90
13426;DHT22;6785;57.918;12.530;2023-04-24T11:44:01;13.10;99.90
13426;DHT22;6785;57.918;12.530;2023-04-24T11:46:29;13.20;99.90
13426;DHT22;6785;57.918;12.530;2023-04-24T11:48:57;13.50;99.90
13426;DHT22;6785;57.918;12.530;2023-04-24T11:51:26;13.70;99.90
13426;DHT22;6785;57.918;12.530;2023-04-24T11:53:54;13.90;99.90
13426;DHT22;6785;57.918;12.530;2023-04-24T11:56:21;13.90;99.90
13426;DHT22;6785;57.918;12.530;2023-04-24T11:58:48;14.10;99.90
13426;DHT22;6785;57.918;12.530;2023-04-24T12:01:15;14.30;99.90
13426;DHT22;6785;57.918;12.530;2023-04-24T12:03:41;14.50;99.90
13426;DHT22;6785;57.918;12.530;2023-04-24T12:06:12;14.60;99.90
13426;DHT22;6785;57.918;12.530;2023-04-24T12:08:40;14.60;99.90
13426;DHT22;6785;57.918;12.530;2023-04-24T12:11:07;14.50;99.90
13426;DHT22;6785;57.918;12.530;2023-04-24T12:13:34;14.50;99.90
13426;DHT22;6785;57.918;12.530;2023-04-24T12:16:02;14.60;99.90
13426;DHT22;6785;57.918;12.530;2023-04-24T12:18:30;14.70;99.90
13426;DHT22;6785;57.918;12.530;2023-04-24T12:21:15;14.80;99.90
13426;DHT22;6785;57.918;12.530;2023-04-24T12:23:44;14.50;99.90
13426;DHT22;6785;57.918;12.530;2023-04-24T12:26:11;14.50;99.90
13426;DHT22;6785;57.918;12.530;2023-04-24T12:28:39;14.50;99.90
13426;DHT22;6785;57.918;12.530;2023-04-24T12:31:06;14.60;99.90
13426;DHT22;6785;57.918;12.530;2023-04-24T12:33:34;14.80;99.90
13426;DHT22;6785;57.918;12.530;2023-04-24T12:36:02;14.80;99.90
13426;DHT22;6785;57.918;12.530;2023-04-24T12:38:29;14.90;99.90
13426;DHT22;6785;57.918;12.530;2023-04-24T12:41:04;15.00;99.90
13426;DHT22;6785;57.918;12.530;2023-04-24T12:43:32;14.90;99.90
13426;DHT22;6785;57.918;12.530;2023-04-24T12:45:58;15.10;99.90
13426;DHT22;6785;57.918;12.530;2023-04-24T12:48:25;15.20;99.90
13426;DHT22;6785;57.918;12.530;2023-04-24T12:50:52;15.40;99.90
13426;DHT22;6785;57.918;12.530;2023-04-24T12:53:19;15.30;99.90
13426;DHT22;6785;57.918;12.530;2023-04-24T12:55:46;15.20;99.90
13426;DHT22;6785;57.918;12.530;2023-04-24T12:58:19;15.20;99.90
13426;DHT22;6785;57.918;12.530;2023-04-24T13:00:46;15.30;99.90
13426;DHT22;6785;57.918;12.530;2023-04-24T13:03:13;15.10;99.90
13426;DHT22;6785;57.918;12.530;2023-04-24T13:05:41;15.10;99.90
13426;DHT22;6785;57.918;12.530;2023-04-24T13:08:08;15.00;99.90
13426;DHT22;6785;57.918;12.530;2023-04-24T13:10:35;14.80;99.90
13426;DHT22;6785;57.918;12.530;2023-04-24T13:13:02;14.60;99.90
13426;DHT22;6785;57.918;12.530;2023-04-24T13:15:30;14.40;99.90
13426;DHT22;6785;57.918;12.530;2023-04-24T13:17:57;14.40;99.90
13426;DHT22;6785;57.918;12.530;2023-04-24T13:20:23;14.30;99.90
13426;DHT22;6785;57.918;12.530;2023-04-24T13:22:51;14.10;99.90
13426;DHT22;6785;57.918;12.530;2023-04-24T13:25:18;13.90;99.90
13426;DHT22;6785;57.918;12.530;2023-04-24T13:27:46;13.70;99.90
13426;DHT22;6785;57.918;12.530;2023-04-24T13:30:13;13.70;99.90
13426;DHT22;6785;57.918;12.530;2023-04-24T13:32:41;13.70;99.90
13426;DHT22;6785;57.918;12.530;2023-04-24T13:35:08;13.70;99.90
13426;DHT22;6785;57.918;12.530;2023-04-24T13:37:35;13.60;99.90
13426;DHT22;6785;57.918;12.530;2023-04-24T13:40:02;13.60;99.90
13426;DHT22;6785;57.918;12.530;2023-04-24T13:42:31;13.60;99.90
13426;DHT22;6785;57.918;12.530;2023-04-24T13:44:58;13.50;99.90
13426;DHT22;6785;57.918;12.530;2023-04-24T13:47:25;13.40;99.90
13426;DHT22;6785;57.918;12.530;2023-04-24T13:49:53;13.40;99.90
13426;DHT22;6785;57.918;12.530;2023-04-24T13:52:20;13.40;99.90
13426;DHT22;6785;57.918;12.530;2023-04-24T13:54:46;13.40;99.90
13426;DHT22;6785;57.918;12.530;2023-04-24T13:57:14;13.40;99.90
13426;DHT22;6785;57.918;12.530;2023-04-24T13:59:41;13.40;99.90
13426;DHT22;6785;57.918;12.530;2023-04-24T14:02:08;13.40;99.90
13426;DHT22;6785;57.918;12.530;2023-04-24T14:04:35;13.50;99.90
13426;DHT22;6785;57.918;12.530;2023-04-24T14:07:03;13.60;99.90
13426;DHT22;6785;57.918;12.530;2023-04-24T14:09:30;13.60;99.90
13426;DHT22;6785;57.918;12.530;2023-04-24T14:11:57;13.70;99.90
13426;DHT22;6785;57.918;12.530;2023-04-24T14:14:23;13.70;99.90
13426;DHT22;6785;57.918;12.530;2023-04-24T14:16:50;13.80;99.90
13426;DHT22;6785;57.918;12.530;2023-04-24T14:19:17;13.70;99.90
13426;DHT22;6785;57.918;12.530;2023-04-24T14:21:44;13.70;99.90
13426;DHT22;6785;57.918;12.530;2023-04-24T14:24:12;13.60;99.90
13426;DHT22;6785;57.918;12.530;2023-04-24T14:26:39;13.70;99.90
13426;DHT22;6785;57.918;12.530;2023-04-24T14:29:05;13.50;99.90
13426;DHT22;6785;57.918;12.530;2023-04-24T14:31:32;13.50;99.90
13426;DHT22;6785;57.918;12.530;2023-04-24T14:33:59;13.40;99.90
13426;DHT22;6785;57.918;12.530;2023-04-24T14:36:25;13.40;99.90
13426;DHT22;6785;57.918;12.530;2023-04-24T14:38:52;13.30;99.90
13426;DHT22;6785;57.918;12.530;2023-04-24T14:41:20;13.30;99.90
13426;DHT22;6785;57.918;12.530;2023-04-24T14:43:47;13.20;99.90
13426;DHT22;6785;57.918;12.530;2023-04-24T14:46:14;13.20;99.90
13426;DHT22;6785;57.918;12.530;2023-04-24T14:48:40;13.10;99.90
13426;DHT22;6785;57.918;12.530;2023-04-24T14:51:07;13.00;99.90
13426;DHT22;6785;57.918;12.530;2023-04-24T14:53:34;13.00;99.90
13426;DHT22;6785;57.918;12.530;2023-04-24T14:56:01;13.00;99.90
13426;DHT22;6785;57.918;12.530;2023-04-24T14:58:29;12.90;99.90
13426;DHT22;6785;57.918;12.530;2023-04-24T15:00:56;12.90;99.90
13426;DHT22;6785;57.918;12.530;2023-04-24T15:03:23;12.90;99.90
13426;DHT22;6785;57.918;12.530;2023-04-24T15:05:52;12.90;99.90
13426;DHT22;6785;57.918;12.530;2023-04-24T15:08:18;12.80;99.90
13426;DHT22;6785;57.918;12.530;2023-04-24T15:10:46;12.70;99.90
13426;DHT22;6785;57.918;12.530;2023-04-24T15:13:13;12.60;99.90
13426;DHT22;6785;57.918;12.530;2023-04-24T15:15:41;12.60;99.90
13426;DHT22;6785;57.918;12.530;2023-04-24T15:18:08;12.40;99.90
13426;DHT22;6785;57.918;12.530;2023-04-24T15:20:37;12.40;99.90
13426;DHT22;6785;57.918;12.530;2023-04-24T15:23:04;12.30;99.90
13426;DHT22;6785;57.918;12.530;2023-04-24T15:25:31;12.40;99.90
13426;DHT22;6785;57.918;12.530;2023-04-24T15:27:58;12.40;99.90
13426;DHT22;6785;57.918;12.530;2023-04-24T15:30:25;12.50;99.90
13426;DHT22;6785;57.918;12.530;2023-04-24T15:32:53;12.60;99.90
13426;DHT22;6785;57.918;12.530;2023-04-24T15:35:20;12.70;99.90
13426;DHT22;6785;57.918;12.530;2023-04-24T15:37:47;12.80;99.90
13426;DHT22;6785;57.918;12.530;2023-04-24T15:40:13;13.00;99.90
13426;DHT22;6785;57.918;12.530;2023-04-24T15:42:42;13.10;99.90